createdAt,value
2018-11-05T00:00:39.704Z,65.86
2018-11-05T00:03:08.199Z,66.29
2018-11-05T00:05:36.635Z,65.51
2018-11-05T00:08:04.974Z,65.95
2018-11-05T00:10:33.286Z,65.84
2018-11-05T00:13:01.656Z,67.23
2018-11-05T00:15:30.024Z,67.13
2018-11-05T00:17:58.354Z,66.97
2018-11-05T00:20:26.768Z,66.96
2018-11-05T00:22:55.099Z,68.83
2018-11-05T00:25:23.438Z,66.94
2018-11-05T00:27:51.736Z,66.74
2018-11-05T00:30:20.095Z,67.41
2018-11-05T00:32:48.451Z,66.39
2018-11-05T00:35:16.755Z,66.92
2018-11-05T00:37:45.098Z,68.05
2018-11-05T00:40:14.451Z,68.04
2018-11-05T00:42:43.347Z,67.92
2018-11-05T00:45:12.361Z,67.68
2018-11-05T00:47:41.100Z,66.40
2018-11-05T00:50:11.127Z,66.28
2018-11-05T00:52:42.595Z,66.02
2018-11-05T00:55:11.643Z,65.45
2018-11-05T00:57:40.055Z,66.56
2018-11-05T01:00:12.572Z,65.34
2018-11-05T01:02:41.479Z,66.45
2018-11-05T01:05:10.903Z,68.21
2018-11-05T01:07:39.532Z,66.13
2018-11-05T01:10:08.982Z,65.77
2018-11-05T01:12:37.719Z,66.06
2018-11-05T01:15:08.082Z,67.68
2018-11-05T01:17:36.463Z,66.86
2018-11-05T01:20:05.207Z,67.27
2018-11-05T01:22:33.543Z,66.04
2018-11-05T01:25:01.896Z,66.75
2018-11-05T01:27:30.227Z,67.25
2018-11-05T01:29:58.546Z,68.00
2018-11-05T01:32:26.863Z,68.03
2018-11-05T01:34:55.173Z,68.16
2018-11-05T01:37:23.676Z,67.77
2018-11-05T01:39:52.379Z,68.63
2018-11-05T01:42:20.699Z,66.12
2018-11-05T01:44:49.007Z,65.58
2018-11-05T01:47:17.332Z,65.38
2018-11-05T01:49:45.643Z,64.36
2018-11-05T01:52:13.951Z,67.09
2018-11-05T01:54:42.291Z,65.21
2018-11-05T01:57:10.667Z,64.58
2018-11-05T01:59:39.043Z,65.31
2018-11-05T02:02:07.374Z,65.83
2018-11-05T02:04:35.699Z,64.96
2018-11-05T02:07:04.036Z,65.19
2018-11-05T02:09:32.438Z,65.43
2018-11-05T02:12:00.754Z,66.11
2018-11-05T02:14:29.100Z,65.83
2018-11-05T02:16:57.408Z,67.03
2018-11-05T02:19:26.026Z,66.82
2018-11-05T02:21:54.350Z,69.76
2018-11-05T02:24:22.701Z,68.01
2018-11-05T02:26:51.087Z,66.39
2018-11-05T02:29:19.414Z,65.87
2018-11-05T02:31:47.719Z,65.64
2018-11-05T02:34:16.142Z,66.34
2018-11-05T02:36:44.454Z,66.74
2018-11-05T02:39:12.762Z,68.43
2018-11-05T02:41:41.059Z,66.15
2018-11-05T02:44:09.389Z,66.26
2018-11-05T02:46:37.695Z,68.52
2018-11-05T02:49:06.011Z,68.66
2018-11-05T02:51:34.331Z,67.08
2018-11-05T02:54:02.713Z,66.79
2018-11-05T02:56:31.208Z,65.77
2018-11-05T02:58:59.728Z,65.96
2018-11-05T03:01:28.170Z,65.87
2018-11-05T03:03:56.662Z,66.33
2018-11-05T03:06:25.092Z,67.60
2018-11-05T03:08:53.515Z,69.44
2018-11-05T03:11:22.052Z,68.95
2018-11-05T03:13:50.608Z,67.43
2018-11-05T03:16:19.160Z,69.01
2018-11-05T03:18:47.635Z,69.03
2018-11-05T03:21:16.091Z,70.29
2018-11-05T03:23:44.515Z,67.67
2018-11-05T03:26:12.873Z,66.43
2018-11-05T03:28:41.295Z,67.87
2018-11-05T03:31:09.735Z,66.67
2018-11-05T03:33:38.158Z,65.79
2018-11-05T03:36:06.907Z,66.30
2018-11-05T03:38:35.268Z,65.43
2018-11-05T03:41:03.714Z,65.53
2018-11-05T03:43:32.249Z,66.18
2018-11-05T03:46:00.799Z,65.55
2018-11-05T03:48:29.223Z,67.32
2018-11-05T03:50:57.719Z,70.52
2018-11-05T03:53:26.199Z,73.28
2018-11-05T03:55:54.618Z,73.09
2018-11-05T03:58:23.031Z,71.62
2018-11-05T04:00:51.468Z,75.76
2018-11-05T04:03:19.983Z,75.28
2018-11-05T04:05:48.336Z,75.25
2018-11-05T04:08:16.740Z,74.58
2018-11-05T04:10:45.161Z,73.81
2018-11-05T04:13:13.588Z,72.09
2018-11-05T04:15:42.119Z,71.51
2018-11-05T04:18:10.434Z,68.72
2018-11-05T04:20:38.895Z,68.08
2018-11-05T04:23:07.347Z,69.65
2018-11-05T04:25:35.819Z,69.07
2018-11-05T04:28:04.335Z,68.29
2018-11-05T04:30:32.826Z,68.39
2018-11-05T04:33:01.367Z,69.46
2018-11-05T04:35:29.714Z,68.39
2018-11-05T04:37:58.353Z,69.21
2018-11-05T04:40:26.847Z,68.56
2018-11-05T04:42:55.250Z,70.91
2018-11-05T04:45:23.635Z,67.61
2018-11-05T04:47:52.060Z,66.74
2018-11-05T04:50:20.362Z,67.24
2018-11-05T04:52:48.760Z,66.82
2018-11-05T04:55:17.182Z,67.29
2018-11-05T04:57:45.596Z,66.93
2018-11-05T05:00:15.891Z,66.89
2018-11-05T05:02:44.408Z,68.89
2018-11-05T05:05:13.874Z,68.72
2018-11-05T05:07:42.391Z,70.18
2018-11-05T05:10:11.030Z,71.66
2018-11-05T05:12:40.417Z,73.38
2018-11-05T05:15:09.348Z,71.25
2018-11-05T05:17:38.135Z,70.31
2018-11-05T05:20:08.710Z,70.05
2018-11-05T05:22:37.225Z,69.81
2018-11-05T05:25:05.886Z,68.73
2018-11-05T05:27:34.335Z,67.76
2018-11-05T05:30:02.931Z,68.71
2018-11-05T05:32:31.331Z,68.45
2018-11-05T05:34:59.797Z,69.43
2018-11-05T05:37:28.198Z,70.58
2018-11-05T05:39:56.687Z,68.53
2018-11-05T05:42:25.115Z,68.40
2018-11-05T05:44:53.576Z,67.98
2018-11-05T05:47:21.991Z,67.67
2018-11-05T05:49:50.463Z,68.19
2018-11-05T05:52:18.923Z,68.60
2018-11-05T05:54:47.352Z,69.09
2018-11-05T05:57:15.931Z,70.34
2018-11-05T05:59:44.437Z,69.72
2018-11-05T06:02:13.067Z,67.78
2018-11-05T06:04:41.644Z,67.62
2018-11-05T06:07:10.127Z,66.71
2018-11-05T06:09:38.575Z,67.61
2018-11-05T06:12:07.008Z,67.82
2018-11-05T06:14:35.470Z,69.00
2018-11-05T06:17:04.128Z,67.41
2018-11-05T06:19:32.544Z,76.08
2018-11-05T06:22:01.212Z,76.25
2018-11-05T06:24:29.623Z,73.21
2018-11-05T06:26:58.137Z,70.44
2018-11-05T06:29:26.667Z,74.51
2018-11-05T06:31:55.119Z,77.60
2018-11-05T06:34:23.752Z,74.28
2018-11-05T06:36:52.202Z,74.66
2018-11-05T06:39:20.815Z,76.18
2018-11-05T06:41:49.474Z,77.20
2018-11-05T06:44:18.015Z,75.45
2018-11-05T06:46:46.523Z,74.81
2018-11-05T06:49:14.989Z,77.65
2018-11-05T06:51:43.448Z,76.66
2018-11-05T06:54:12.105Z,77.54
2018-11-05T06:56:40.535Z,77.86
2018-11-05T06:59:09.011Z,78.21
2018-11-05T07:01:37.573Z,76.65
2018-11-05T07:04:06.191Z,76.04
2018-11-05T07:06:34.642Z,74.56
2018-11-05T07:09:03.218Z,78.63
2018-11-05T07:11:31.731Z,75.49
2018-11-05T07:14:00.056Z,78.11
2018-11-05T07:16:28.541Z,78.13
2018-11-05T07:18:57.204Z,77.89
2018-11-05T07:21:25.647Z,73.62
2018-11-05T07:23:54.260Z,76.01
2018-11-05T07:26:22.767Z,79.12
2018-11-05T07:28:51.379Z,78.79
2018-11-05T07:31:19.858Z,77.55
2018-11-05T07:33:48.536Z,78.59
2018-11-05T07:36:16.873Z,79.65
2018-11-05T07:38:45.351Z,80.01
2018-11-05T07:41:13.791Z,81.02
2018-11-05T07:43:42.195Z,78.35
2018-11-05T07:46:11.227Z,80.56
2018-11-05T07:48:39.651Z,75.99
2018-11-05T07:51:08.120Z,76.04
2018-11-05T07:53:36.523Z,75.51
2018-11-05T07:56:05.415Z,73.92
2018-11-05T07:58:33.831Z,71.89
2018-11-05T08:01:02.267Z,68.42
2018-11-05T08:03:30.699Z,68.70
2018-11-05T08:05:59.087Z,69.01
2018-11-05T08:08:27.530Z,67.87
2018-11-05T08:10:55.912Z,69.28
2018-11-05T08:13:24.323Z,68.32
2018-11-05T08:15:52.739Z,68.17
2018-11-05T08:18:21.176Z,70.48
2018-11-05T08:20:49.612Z,71.88
2018-11-05T08:23:18.115Z,68.29
2018-11-05T08:25:46.698Z,67.22
2018-11-05T08:28:15.139Z,67.05
2018-11-05T08:30:43.609Z,66.63
2018-11-05T08:33:12.100Z,65.29
2018-11-05T08:35:40.597Z,65.47
2018-11-05T08:38:09.178Z,62.44
2018-11-05T08:40:37.607Z,62.60
2018-11-05T08:43:06.171Z,61.71
2018-11-05T08:45:34.595Z,59.35
2018-11-05T08:48:03.015Z,59.32
2018-11-05T08:50:31.665Z,58.23
2018-11-05T08:53:00.152Z,58.87
2018-11-05T08:55:28.615Z,58.05
2018-11-05T08:57:57.090Z,57.84
2018-11-05T09:00:30.820Z,57.50
2018-11-05T09:02:59.389Z,60.06
2018-11-05T09:05:27.903Z,59.45
2018-11-05T09:07:56.662Z,60.65
2018-11-05T09:10:25.262Z,60.68
2018-11-05T09:12:53.558Z,55.05
2018-11-05T09:15:22.753Z,55.10
2018-11-05T09:17:51.374Z,54.09
2018-11-05T09:20:20.321Z,53.25
2018-11-05T09:22:49.427Z,51.16
2018-11-05T09:25:18.066Z,50.29
2018-11-05T09:27:46.594Z,50.41
2018-11-05T09:30:17.580Z,48.21
2018-11-05T09:32:46.402Z,47.23
2018-11-05T09:35:14.833Z,46.71
2018-11-05T09:37:43.261Z,47.90
2018-11-05T09:40:14.936Z,47.70
2018-11-05T09:42:43.939Z,46.66
2018-11-05T09:45:15.764Z,46.46
2018-11-05T09:47:44.977Z,45.39
2018-11-05T09:50:13.478Z,45.55
2018-11-05T09:52:42.068Z,48.81
2018-11-05T09:55:11.655Z,49.12
2018-11-05T09:57:40.337Z,53.45
2018-11-05T10:00:12.058Z,54.84
2018-11-05T10:02:46.737Z,54.03
2018-11-05T10:05:15.668Z,54.63
2018-11-05T10:07:44.568Z,55.14
2018-11-05T10:10:13.761Z,57.11
2018-11-05T10:12:42.339Z,57.24
2018-11-05T10:15:11.825Z,57.30
2018-11-05T10:17:40.610Z,56.19
2018-11-05T10:20:13.775Z,55.57
2018-11-05T10:22:42.375Z,54.99
2018-11-05T10:25:11.599Z,57.25
2018-11-05T10:27:39.915Z,55.33
2018-11-05T10:30:10.704Z,53.44
2018-11-05T10:32:39.322Z,55.76
2018-11-05T10:35:07.693Z,52.69
2018-11-05T10:37:36.088Z,52.82
2018-11-05T10:40:06.130Z,52.62
2018-11-05T10:42:34.496Z,51.82
2018-11-05T10:45:02.992Z,52.66
2018-11-05T10:47:31.521Z,50.45
2018-11-05T10:49:59.972Z,50.02
2018-11-05T10:52:28.534Z,51.87
2018-11-05T10:54:56.899Z,52.52
2018-11-05T10:57:25.397Z,50.12
2018-11-05T10:59:53.966Z,49.04
2018-11-05T11:02:27.675Z,49.72
2018-11-05T11:04:56.137Z,51.09
2018-11-05T11:07:24.564Z,51.95
2018-11-05T11:09:53.047Z,52.66
2018-11-05T11:12:21.450Z,52.66
2018-11-05T11:14:49.876Z,52.75
2018-11-05T11:17:18.314Z,52.89
2018-11-05T11:19:46.695Z,52.93
2018-11-05T11:22:15.181Z,54.24
2018-11-05T11:24:43.656Z,55.18
2018-11-05T11:27:12.095Z,57.96
2018-11-05T11:29:40.562Z,58.09
2018-11-05T11:32:09.093Z,59.97
2018-11-05T11:34:37.443Z,57.05
2018-11-05T11:37:06.071Z,59.57
2018-11-05T11:39:34.474Z,59.75
2018-11-05T11:42:03.016Z,58.25
2018-11-05T11:44:31.379Z,58.40
2018-11-05T11:46:59.843Z,60.25
2018-11-05T11:49:28.252Z,59.41
2018-11-05T11:51:56.771Z,61.67
2018-11-05T11:54:25.319Z,62.32
2018-11-05T11:56:53.791Z,61.39
2018-11-05T11:59:22.275Z,60.69
2018-11-05T12:01:57.599Z,61.79
2018-11-05T12:04:26.057Z,60.65
2018-11-05T12:06:54.615Z,61.95
2018-11-05T12:09:23.056Z,60.53
2018-11-05T12:11:51.516Z,58.78
2018-11-05T12:14:20.015Z,57.94
2018-11-05T12:16:48.457Z,57.63
2018-11-05T12:19:16.894Z,54.36
2018-11-05T12:21:46.360Z,51.76
2018-11-05T12:24:17.815Z,52.64
2018-11-05T12:26:46.244Z,49.65
2018-11-05T12:29:14.766Z,47.37
2018-11-05T12:31:43.233Z,49.45
2018-11-05T12:34:11.639Z,47.45
2018-11-05T12:36:40.043Z,51.66
2018-11-05T12:39:09.546Z,52.42
2018-11-05T12:41:38.315Z,50.82
2018-11-05T12:44:07.667Z,50.28
2018-11-05T12:46:39.038Z,50.84
2018-11-05T12:49:07.479Z,49.07
2018-11-05T12:51:35.879Z,50.82
2018-11-05T12:54:04.468Z,50.69
2018-11-05T12:56:32.943Z,50.94
2018-11-05T12:59:01.581Z,52.96
2018-11-05T13:01:30.645Z,51.61
2018-11-05T13:03:59.128Z,50.26
2018-11-05T13:06:27.504Z,48.97
2018-11-05T13:08:55.922Z,51.98
2018-11-05T13:11:24.391Z,49.82
2018-11-05T13:13:52.827Z,50.62
2018-11-05T13:16:21.299Z,48.52
2018-11-05T13:18:49.731Z,49.24
2018-11-05T13:21:18.144Z,47.49
2018-11-05T13:23:47.151Z,48.72
2018-11-05T13:26:16.251Z,48.76
2018-11-05T13:28:44.663Z,47.51
2018-11-05T13:31:13.027Z,48.42
2018-11-05T13:33:41.411Z,49.97
2018-11-05T13:36:09.874Z,50.69
2018-11-05T13:38:38.732Z,52.29
2018-11-05T13:41:06.835Z,52.66
2018-11-05T13:43:35.339Z,51.38
2018-11-05T13:46:04.077Z,54.28
2018-11-05T13:48:32.716Z,55.90
2018-11-05T13:51:00.579Z,55.97
2018-11-05T13:53:29.019Z,54.90
2018-11-05T13:55:57.402Z,55.35
2018-11-05T13:58:25.927Z,53.85
2018-11-05T14:00:54.346Z,58.01
2018-11-05T14:03:22.734Z,54.26
2018-11-05T14:05:51.289Z,57.29
2018-11-05T14:08:19.686Z,57.72
2018-11-05T14:10:48.102Z,56.42
2018-11-05T14:13:16.518Z,55.99
2018-11-05T14:15:44.943Z,56.93
2018-11-05T14:18:13.340Z,58.75
2018-11-05T14:20:41.610Z,60.08
2018-11-05T14:23:10.020Z,59.08
2018-11-05T14:25:38.549Z,60.04
2018-11-05T14:28:07.234Z,58.13
2018-11-05T14:30:35.350Z,61.53
2018-11-05T14:33:03.789Z,59.65
2018-11-05T14:35:32.287Z,57.72
2018-11-05T14:38:00.848Z,58.20
2018-11-05T14:40:29.370Z,59.11
2018-11-05T14:42:57.887Z,60.73
2018-11-05T14:45:26.267Z,62.20
2018-11-05T14:47:54.719Z,59.70
2018-11-05T14:50:23.715Z,60.04
2018-11-05T14:52:52.071Z,60.82
2018-11-05T14:55:20.796Z,61.20
2018-11-05T14:57:50.344Z,61.29
2018-11-05T15:00:20.419Z,59.15
2018-11-05T15:02:49.608Z,62.87
2018-11-05T15:05:18.087Z,60.58
2018-11-05T15:07:47.255Z,59.07
2018-11-05T15:10:17.086Z,59.98
2018-11-05T15:12:45.593Z,60.18
2018-11-05T15:15:14.594Z,61.52
2018-11-05T15:17:43.582Z,60.32
2018-11-05T15:20:13.570Z,61.54
2018-11-05T15:22:42.012Z,60.52
2018-11-05T15:25:10.753Z,62.27
2018-11-05T15:27:39.734Z,61.60
2018-11-05T15:30:13.683Z,60.76
2018-11-05T15:32:42.459Z,61.52
2018-11-05T15:35:11.050Z,61.22
2018-11-05T15:37:40.427Z,62.27
2018-11-05T15:40:09.956Z,63.73
2018-11-05T15:42:38.751Z,64.05
2018-11-05T15:45:09.878Z,61.14
2018-11-05T15:47:40.564Z,62.27
2018-11-05T15:50:11.892Z,61.25
2018-11-05T15:52:41.560Z,61.09
2018-11-05T15:55:10.627Z,60.54
2018-11-05T15:57:40.380Z,62.86
2018-11-05T16:00:19.450Z,60.69
2018-11-05T16:03:02.993Z,63.63
2018-11-05T16:05:32.365Z,61.69
2018-11-05T16:08:01.745Z,60.14
2018-11-05T16:10:30.144Z,63.00
2018-11-05T16:12:58.596Z,61.72
2018-11-05T16:15:27.105Z,62.54
2018-11-05T16:17:55.579Z,63.16
2018-11-05T16:20:24.171Z,62.50
2018-11-05T16:22:52.982Z,63.90
2018-11-05T16:25:21.923Z,63.47
2018-11-05T16:27:53.805Z,62.33
2018-11-05T16:30:22.718Z,61.80
2018-11-05T16:32:51.694Z,64.24
2018-11-05T16:35:20.143Z,66.19
2018-11-05T16:37:48.539Z,62.74
2018-11-05T16:40:17.884Z,62.40
2018-11-05T16:42:47.347Z,62.07
2018-11-05T16:45:15.837Z,65.91
2018-11-05T16:47:44.588Z,62.63
2018-11-05T16:50:15.670Z,65.68
2018-11-05T16:52:44.160Z,63.94
2018-11-05T16:55:13.620Z,63.92
2018-11-05T16:57:43.004Z,66.52
2018-11-05T17:00:11.978Z,66.85
2018-11-05T17:02:40.735Z,65.97
2018-11-05T17:05:09.048Z,67.61
2018-11-05T17:07:37.579Z,66.07
2018-11-05T17:10:07.272Z,63.24
2018-11-05T17:12:35.782Z,64.34
2018-11-05T17:15:04.777Z,63.94
2018-11-05T17:17:33.236Z,64.59
2018-11-05T17:20:01.835Z,62.66
2018-11-05T17:22:30.307Z,61.76
2018-11-05T17:24:58.871Z,60.93
2018-11-05T17:27:27.407Z,61.71
2018-11-05T17:29:55.918Z,60.86
2018-11-05T17:32:24.366Z,60.94
2018-11-05T17:34:52.735Z,61.49
2018-11-05T17:37:21.291Z,61.89
2018-11-05T17:39:49.748Z,62.05
2018-11-05T17:42:18.164Z,62.47
2018-11-05T17:44:46.760Z,62.61
2018-11-05T17:47:15.315Z,62.36
2018-11-05T17:49:43.847Z,63.45
2018-11-05T17:52:12.267Z,63.69
2018-11-05T17:54:40.659Z,64.47
2018-11-05T17:57:09.115Z,62.99
2018-11-05T17:59:37.571Z,64.32
2018-11-05T18:02:06.052Z,65.43
2018-11-05T18:04:34.489Z,65.24
2018-11-05T18:07:02.959Z,66.95
2018-11-05T18:09:31.519Z,65.87
2018-11-05T18:11:59.847Z,64.24
2018-11-05T18:14:28.330Z,65.55
2018-11-05T18:16:56.768Z,66.10
2018-11-05T18:19:25.287Z,64.80
2018-11-05T18:21:53.731Z,62.50
2018-11-05T18:24:22.314Z,64.26
2018-11-05T18:29:35.125Z,61.69
2018-11-05T18:32:03.631Z,61.95
2018-11-05T18:34:32.794Z,61.08
2018-11-05T18:37:01.226Z,61.12
2018-11-05T18:39:29.711Z,60.19
2018-11-05T18:41:58.144Z,59.62
2018-11-05T18:44:26.530Z,58.87
2018-11-05T18:46:55.011Z,60.36
2018-11-05T18:49:23.499Z,60.70
2018-11-05T18:51:52.242Z,59.73
2018-11-05T18:54:20.615Z,63.54
2018-11-05T18:56:49.084Z,60.98
2018-11-05T18:59:17.520Z,61.50
2018-11-05T19:01:45.982Z,63.17
2018-11-05T19:04:14.620Z,63.08
2018-11-05T19:06:43.123Z,65.18
2018-11-05T19:09:11.713Z,62.35
2018-11-05T19:11:40.122Z,61.26
2018-11-05T19:14:08.580Z,62.01
2018-11-05T19:16:36.992Z,64.75
2018-11-05T19:19:05.506Z,64.91
2018-11-05T19:21:34.029Z,66.52
2018-11-05T19:24:02.726Z,64.45
2018-11-05T19:26:31.045Z,63.14
2018-11-05T19:28:59.660Z,61.48
2018-11-05T19:31:28.158Z,63.69
2018-11-05T19:33:56.790Z,64.69
2018-11-05T19:36:25.149Z,62.85
2018-11-05T19:38:53.728Z,63.75
2018-11-05T19:41:22.239Z,60.45
2018-11-05T19:43:50.675Z,63.47
2018-11-05T19:46:19.200Z,63.18
2018-11-05T19:48:47.718Z,65.47
2018-11-05T19:51:16.192Z,62.89
2018-11-05T19:53:44.779Z,62.54
2018-11-05T19:56:13.518Z,62.24
2018-11-05T19:58:41.990Z,64.15
2018-11-05T20:01:10.467Z,62.58
2018-11-05T20:03:39.086Z,63.64
2018-11-05T20:06:07.775Z,64.73
2018-11-05T20:08:36.369Z,63.78
2018-11-05T20:11:06.147Z,61.51
2018-11-05T20:13:34.667Z,61.50
2018-11-05T20:16:03.256Z,63.70
2018-11-05T20:18:31.782Z,62.32
2018-11-05T20:21:00.164Z,61.65
2018-11-05T20:23:28.701Z,61.26
2018-11-05T20:25:57.135Z,61.94
2018-11-05T20:28:25.739Z,60.43
2018-11-05T20:30:54.108Z,64.95
2018-11-05T20:33:22.695Z,65.60
2018-11-05T20:35:50.882Z,66.24
2018-11-05T20:38:19.208Z,64.22
2018-11-05T20:40:48.718Z,63.74
2018-11-05T20:43:17.121Z,66.22
2018-11-05T20:45:45.592Z,64.85
2018-11-05T20:48:14.064Z,64.91
2018-11-05T20:50:42.511Z,63.15
2018-11-05T20:53:10.862Z,62.23
2018-11-05T20:55:39.448Z,60.10
2018-11-05T20:58:07.807Z,60.10
2018-11-05T21:00:36.289Z,62.23
2018-11-05T21:03:04.987Z,63.13
2018-11-05T21:05:33.695Z,63.75
2018-11-05T21:08:02.121Z,60.23
2018-11-05T21:10:30.510Z,60.75
2018-11-05T21:12:58.882Z,59.80
2018-11-05T21:15:28.219Z,59.31
2018-11-05T21:17:56.683Z,62.33
2018-11-05T21:20:25.072Z,60.90
2018-11-05T21:22:53.696Z,62.26
2018-11-05T21:25:21.900Z,62.42
2018-11-05T21:27:50.246Z,62.44
2018-11-05T21:30:20.867Z,64.46
2018-11-05T21:32:49.305Z,63.66
2018-11-05T21:35:18.855Z,63.62
2018-11-05T21:37:47.223Z,63.03
2018-11-05T21:40:16.531Z,64.37
2018-11-05T21:42:44.902Z,64.32
2018-11-05T21:45:14.168Z,62.89
2018-11-05T21:47:43.200Z,61.91
2018-11-05T21:50:13.173Z,63.35
2018-11-05T21:52:42.139Z,61.33
2018-11-05T21:55:10.672Z,64.62
2018-11-05T21:57:40.803Z,61.26
2018-11-05T22:00:13.107Z,59.67
2018-11-05T22:02:46.791Z,59.91
2018-11-05T22:05:15.686Z,60.30
2018-11-05T22:07:44.120Z,59.11
2018-11-05T22:10:13.251Z,59.42
2018-11-05T22:12:41.763Z,62.51
2018-11-05T22:15:10.208Z,61.83
2018-11-05T22:17:38.588Z,60.35
2018-11-05T22:20:07.973Z,60.46
2018-11-05T22:22:36.848Z,61.33
2018-11-05T22:25:05.327Z,62.59
2018-11-05T22:27:33.787Z,63.10
2018-11-05T22:30:02.115Z,63.35
2018-11-05T22:32:31.559Z,64.18
2018-11-05T22:35:00.727Z,62.95
2018-11-05T22:37:29.488Z,63.21
2018-11-05T22:39:57.948Z,64.41
2018-11-05T22:42:26.594Z,66.12
2018-11-05T22:44:55.082Z,63.34
2018-11-05T22:47:23.746Z,66.02
2018-11-05T22:49:52.347Z,65.61
2018-11-05T22:52:20.762Z,62.71
2018-11-05T22:54:49.207Z,61.76
2018-11-05T22:57:17.579Z,61.16
2018-11-05T22:59:46.068Z,62.00
2018-11-05T23:02:14.531Z,62.88
2018-11-05T23:04:42.895Z,64.17
2018-11-05T23:07:11.246Z,63.20
2018-11-05T23:09:39.585Z,62.45
2018-11-05T23:12:07.907Z,61.77
2018-11-05T23:14:36.230Z,61.68
2018-11-05T23:17:04.574Z,63.10
2018-11-05T23:19:32.895Z,62.48
2018-11-05T23:22:01.231Z,61.89
2018-11-05T23:24:29.565Z,62.03
2018-11-05T23:26:57.923Z,61.53
2018-11-05T23:29:26.274Z,61.76
2018-11-05T23:31:54.625Z,63.54
2018-11-05T23:34:22.957Z,63.07
2018-11-05T23:36:51.304Z,62.65
2018-11-05T23:39:19.628Z,63.82
2018-11-05T23:41:47.943Z,62.33
2018-11-05T23:44:22.490Z,61.91
2018-11-05T23:46:50.888Z,61.63
2018-11-05T23:49:19.227Z,61.81
2018-11-05T23:51:47.684Z,62.04
2018-11-05T23:54:15.982Z,62.19
2018-11-05T23:56:44.386Z,63.22
2018-11-05T23:59:12.726Z,63.27
